sensor_id;sensor_type;location;lat;lon;timestamp;P1;durP1;ratioP1;P2;durP2;ratioP2
44169;SDS011;29836;52.286;9.576;2023-06-14T00:02:11;3.28;;;2.28;;
44169;SDS011;29836;52.286;9.576;2023-06-14T00:04:37;4.22;;;2.53;;
44169;SDS011;29836;52.286;9.576;2023-06-14T00:07:04;4.72;;;2.63;;
44169;SDS011;29836;52.286;9.576;2023-06-14T00:09:33;4.05;;;2.42;;
44169;SDS011;29836;52.286;9.576;2023-06-14T00:11:58;5.18;;;2.63;;
44169;SDS011;29836;52.286;9.576;2023-06-14T00:14:24;3.95;;;2.75;;
44169;SDS011;29836;52.286;9.576;2023-06-14T00:16:49;4.45;;;2.55;;
44169;SDS011;29836;52.286;9.576;2023-06-14T00:19:17;3.78;;;2.50;;
44169;SDS011;29836;52.286;9.576;2023-06-14T00:21:43;3.60;;;2.40;;
44169;SDS011;29836;52.286;9.576;2023-06-14T00:24:08;5.85;;;2.50;;
44169;SDS011;29836;52.286;9.576;2023-06-14T00:26:34;3.97;;;2.20;;
44169;SDS011;29836;52.286;9.576;2023-06-14T00:28:59;7.50;;;2.28;;
44169;SDS011;29836;52.286;9.576;2023-06-14T00:31:25;4.63;;;2.50;;
44169;SDS011;29836;52.286;9.576;2023-06-14T00:33:51;6.03;;;2.47;;
44169;SDS011;29836;52.286;9.576;2023-06-14T00:36:16;4.80;;;2.40;;
44169;SDS011;29836;52.286;9.576;2023-06-14T00:38:42;3.50;;;2.25;;
44169;SDS011;29836;52.286;9.576;2023-06-14T00:41:07;3.58;;;2.58;;
44169;SDS011;29836;52.286;9.576;2023-06-14T00:43:33;4.18;;;2.50;;
44169;SDS011;29836;52.286;9.576;2023-06-14T00:45:59;4.30;;;2.30;;
44169;SDS011;29836;52.286;9.576;2023-06-14T00:48:30;3.85;;;2.30;;
44169;SDS011;29836;52.286;9.576;2023-06-14T00:50:57;4.20;;;2.53;;
44169;SDS011;29836;52.286;9.576;2023-06-14T00:53:28;3.70;;;2.40;;
44169;SDS011;29836;52.286;9.576;2023-06-14T00:55:56;3.53;;;2.30;;
44169;SDS011;29836;52.286;9.576;2023-06-14T00:58:21;4.80;;;2.80;;
44169;SDS011;29836;52.286;9.576;2023-06-14T01:00:47;4.45;;;2.47;;
44169;SDS011;29836;52.286;9.576;2023-06-14T01:03:13;5.88;;;2.30;;
44169;SDS011;29836;52.286;9.576;2023-06-14T01:05:44;4.53;;;2.65;;
44169;SDS011;29836;52.286;9.576;2023-06-14T01:13:40;4.18;;;2.50;;
44169;SDS011;29836;52.286;9.576;2023-06-14T01:16:10;4.93;;;2.60;;
44169;SDS011;29836;52.286;9.576;2023-06-14T01:18:36;4.47;;;2.40;;
44169;SDS011;29836;52.286;9.576;2023-06-14T01:21:02;5.53;;;2.60;;
44169;SDS011;29836;52.286;9.576;2023-06-14T01:23:31;7.05;;;2.70;;
44169;SDS011;29836;52.286;9.576;2023-06-14T01:25:58;3.63;;;2.60;;
44169;SDS011;29836;52.286;9.576;2023-06-14T01:28:25;4.53;;;2.50;;
44169;SDS011;29836;52.286;9.576;2023-06-14T01:30:52;3.70;;;2.55;;
44169;SDS011;29836;52.286;9.576;2023-06-14T01:33:23;4.90;;;2.40;;
44169;SDS011;29836;52.286;9.576;2023-06-14T01:35:52;5.95;;;2.65;;
44169;SDS011;29836;52.286;9.576;2023-06-14T01:38:19;4.97;;;2.42;;
44169;SDS011;29836;52.286;9.576;2023-06-14T01:40:47;4.15;;;2.28;;
44169;SDS011;29836;52.286;9.576;2023-06-14T01:43:13;6.90;;;2.50;;
44169;SDS011;29836;52.286;9.576;2023-06-14T01:45:41;4.28;;;2.33;;
44169;SDS011;29836;52.286;9.576;2023-06-14T01:48:09;6.20;;;2.67;;
44169;SDS011;29836;52.286;9.576;2023-06-14T01:50:34;4.78;;;2.70;;
44169;SDS011;29836;52.286;9.576;2023-06-14T01:53:00;7.43;;;2.70;;
44169;SDS011;29836;52.286;9.576;2023-06-14T01:55:26;3.53;;;2.53;;
44169;SDS011;29836;52.286;9.576;2023-06-14T01:57:52;4.25;;;2.30;;
44169;SDS011;29836;52.286;9.576;2023-06-14T02:00:18;5.03;;;2.70;;
44169;SDS011;29836;52.286;9.576;2023-06-14T02:02:44;4.97;;;2.65;;
44169;SDS011;29836;52.286;9.576;2023-06-14T02:05:10;5.25;;;2.90;;
44169;SDS011;29836;52.286;9.576;2023-06-14T02:07:36;5.55;;;2.70;;
44169;SDS011;29836;52.286;9.576;2023-06-14T02:10:02;4.63;;;2.72;;
44169;SDS011;29836;52.286;9.576;2023-06-14T02:12:29;5.07;;;2.42;;
44169;SDS011;29836;52.286;9.576;2023-06-14T02:14:54;4.18;;;2.60;;
44169;SDS011;29836;52.286;9.576;2023-06-14T02:17:21;7.97;;;2.70;;
44169;SDS011;29836;52.286;9.576;2023-06-14T02:19:47;5.40;;;2.80;;
44169;SDS011;29836;52.286;9.576;2023-06-14T02:22:13;5.85;;;2.70;;
44169;SDS011;29836;52.286;9.576;2023-06-14T02:24:40;3.20;;;2.17;;
44169;SDS011;29836;52.286;9.576;2023-06-14T02:27:06;5.72;;;2.40;;
44169;SDS011;29836;52.286;9.576;2023-06-14T02:29:33;5.60;;;2.50;;
44169;SDS011;29836;52.286;9.576;2023-06-14T02:31:59;4.30;;;2.63;;
44169;SDS011;29836;52.286;9.576;2023-06-14T02:34:24;3.78;;;2.42;;
44169;SDS011;29836;52.286;9.576;2023-06-14T02:36:50;4.57;;;2.70;;
44169;SDS011;29836;52.286;9.576;2023-06-14T02:39:17;4.32;;;2.88;;
44169;SDS011;29836;52.286;9.576;2023-06-14T02:41:45;6.30;;;2.78;;
44169;SDS011;29836;52.286;9.576;2023-06-14T02:44:12;3.58;;;2.60;;
44169;SDS011;29836;52.286;9.576;2023-06-14T02:46:38;4.20;;;2.40;;
44169;SDS011;29836;52.286;9.576;2023-06-14T02:49:04;4.95;;;2.95;;
44169;SDS011;29836;52.286;9.576;2023-06-14T02:51:30;8.93;;;2.80;;
44169;SDS011;29836;52.286;9.576;2023-06-14T02:53:55;5.97;;;2.75;;
44169;SDS011;29836;52.286;9.576;2023-06-14T02:56:21;3.92;;;2.75;;
44169;SDS011;29836;52.286;9.576;2023-06-14T02:58:48;6.00;;;2.78;;
44169;SDS011;29836;52.286;9.576;2023-06-14T03:01:13;4.00;;;2.60;;
44169;SDS011;29836;52.286;9.576;2023-06-14T03:03:39;4.25;;;2.35;;
44169;SDS011;29836;52.286;9.576;2023-06-14T03:06:05;6.25;;;2.83;;
44169;SDS011;29836;52.286;9.576;2023-06-14T03:08:31;3.88;;;2.40;;
44169;SDS011;29836;52.286;9.576;2023-06-14T03:11:03;5.57;;;2.70;;
44169;SDS011;29836;52.286;9.576;2023-06-14T03:13:30;5.55;;;2.90;;
44169;SDS011;29836;52.286;9.576;2023-06-14T03:15:57;4.90;;;2.63;;
44169;SDS011;29836;52.286;9.576;2023-06-14T03:18:23;4.22;;;2.60;;
44169;SDS011;29836;52.286;9.576;2023-06-14T03:20:48;4.30;;;2.67;;
44169;SDS011;29836;52.286;9.576;2023-06-14T03:23:15;4.75;;;2.50;;
44169;SDS011;29836;52.286;9.576;2023-06-14T03:25:41;5.15;;;2.72;;
44169;SDS011;29836;52.286;9.576;2023-06-14T03:28:07;5.75;;;2.60;;
44169;SDS011;29836;52.286;9.576;2023-06-14T03:30:33;3.53;;;2.47;;
44169;SDS011;29836;52.286;9.576;2023-06-14T03:32:58;4.70;;;2.63;;
44169;SDS011;29836;52.286;9.576;2023-06-14T03:35:26;5.10;;;2.65;;
44169;SDS011;29836;52.286;9.576;2023-06-14T03:37:52;6.80;;;2.75;;
44169;SDS011;29836;52.286;9.576;2023-06-14T03:40:18;5.25;;;2.80;;
44169;SDS011;29836;52.286;9.576;2023-06-14T03:42:44;5.15;;;2.55;;
44169;SDS011;29836;52.286;9.576;2023-06-14T03:45:10;4.40;;;2.60;;
44169;SDS011;29836;52.286;9.576;2023-06-14T03:47:36;4.55;;;2.30;;
44169;SDS011;29836;52.286;9.576;2023-06-14T03:50:02;6.25;;;2.63;;
44169;SDS011;29836;52.286;9.576;2023-06-14T03:52:28;5.13;;;2.70;;
44169;SDS011;29836;52.286;9.576;2023-06-14T03:54:54;6.20;;;2.78;;
44169;SDS011;29836;52.286;9.576;2023-06-14T03:57:20;6.53;;;2.47;;
44169;SDS011;29836;52.286;9.576;2023-06-14T03:59:46;6.63;;;2.45;;
44169;SDS011;29836;52.286;9.576;2023-06-14T04:02:12;3.88;;;2.38;;
44169;SDS011;29836;52.286;9.576;2023-06-14T04:04:40;5.78;;;2.60;;
44169;SDS011;29836;52.286;9.576;2023-06-14T04:07:09;5.50;;;2.75;;
44169;SDS011;29836;52.286;9.576;2023-06-14T04:09:36;3.85;;;2.60;;
44169;SDS011;29836;52.286;9.576;2023-06-14T04:12:02;4.43;;;2.47;;
44169;SDS011;29836;52.286;9.576;2023-06-14T04:14:28;6.00;;;2.95;;
44169;SDS011;29836;52.286;9.576;2023-06-14T04:16:53;5.28;;;2.88;;
44169;SDS011;29836;52.286;9.576;2023-06-14T04:19:19;5.72;;;2.90;;
44169;SDS011;29836;52.286;9.576;2023-06-14T04:21:44;5.72;;;2.72;;
44169;SDS011;29836;52.286;9.576;2023-06-14T04:24:10;5.63;;;2.50;;
44169;SDS011;29836;52.286;9.576;2023-06-14T04:26:39;3.80;;;2.35;;
44169;SDS011;29836;52.286;9.576;2023-06-14T04:29:06;5.43;;;2.80;;
44169;SDS011;29836;52.286;9.576;2023-06-14T04:31:32;5.68;;;2.58;;
44169;SDS011;29836;52.286;9.576;2023-06-14T04:34:02;7.63;;;2.30;;
44169;SDS011;29836;52.286;9.576;2023-06-14T04:36:31;4.93;;;2.72;;
44169;SDS011;29836;52.286;9.576;2023-06-14T04:38:59;4.82;;;2.65;;
44169;SDS011;29836;52.286;9.576;2023-06-14T04:41:28;5.15;;;2.47;;
44169;SDS011;29836;52.286;9.576;2023-06-14T04:43:59;4.10;;;2.67;;
44169;SDS011;29836;52.286;9.576;2023-06-14T04:46:27;5.20;;;2.63;;
44169;SDS011;29836;52.286;9.576;2023-06-14T04:48:53;4.40;;;2.70;;
44169;SDS011;29836;52.286;9.576;2023-06-14T04:51:19;4.15;;;2.47;;
44169;SDS011;29836;52.286;9.576;2023-06-14T04:53:47;4.25;;;2.30;;
44169;SDS011;29836;52.286;9.576;2023-06-14T04:56:14;3.67;;;2.42;;
44169;SDS011;29836;52.286;9.576;2023-06-14T04:58:40;5.43;;;2.95;;
44169;SDS011;29836;52.286;9.576;2023-06-14T05:01:05;4.57;;;2.70;;
44169;SDS011;29836;52.286;9.576;2023-06-14T05:03:34;3.90;;;2.50;;
44169;SDS011;29836;52.286;9.576;2023-06-14T05:05:59;6.68;;;2.33;;
44169;SDS011;29836;52.286;9.576;2023-06-14T05:08:25;5.30;;;2.70;;
44169;SDS011;29836;52.286;9.576;2023-06-14T05:10:51;5.63;;;2.55;;
44169;SDS011;29836;52.286;9.576;2023-06-14T05:13:17;5.00;;;2.47;;
44169;SDS011;29836;52.286;9.576;2023-06-14T05:15:43;4.43;;;2.10;;
44169;SDS011;29836;52.286;9.576;2023-06-14T05:18:09;4.78;;;2.38;;
44169;SDS011;29836;52.286;9.576;2023-06-14T05:20:35;4.57;;;2.22;;
44169;SDS011;29836;52.286;9.576;2023-06-14T05:23:02;3.50;;;2.15;;
44169;SDS011;29836;52.286;9.576;2023-06-14T05:25:27;4.53;;;2.28;;
44169;SDS011;29836;52.286;9.576;2023-06-14T05:27:53;4.35;;;2.42;;
44169;SDS011;29836;52.286;9.576;2023-06-14T05:30:19;3.47;;;2.10;;
44169;SDS011;29836;52.286;9.576;2023-06-14T05:32:45;4.97;;;2.20;;
44169;SDS011;29836;52.286;9.576;2023-06-14T05:35:10;3.90;;;2.38;;
44169;SDS011;29836;52.286;9.576;2023-06-14T05:37:36;4.97;;;2.15;;
44169;SDS011;29836;52.286;9.576;2023-06-14T05:40:02;4.15;;;2.28;;
44169;SDS011;29836;52.286;9.576;2023-06-14T05:42:32;7.22;;;2.40;;
44169;SDS011;29836;52.286;9.576;2023-06-14T05:44:58;3.63;;;2.15;;
44169;SDS011;29836;52.286;9.576;2023-06-14T05:47:23;4.25;;;2.17;;
44169;SDS011;29836;52.286;9.576;2023-06-14T05:49:49;3.80;;;2.40;;
44169;SDS011;29836;52.286;9.576;2023-06-14T05:52:14;4.38;;;2.28;;
44169;SDS011;29836;52.286;9.576;2023-06-14T05:54:40;4.38;;;2.40;;
44169;SDS011;29836;52.286;9.576;2023-06-14T05:57:06;4.28;;;2.17;;
44169;SDS011;29836;52.286;9.576;2023-06-14T05:59:32;2.80;;;2.00;;
44169;SDS011;29836;52.286;9.576;2023-06-14T06:01:57;3.72;;;2.00;;
44169;SDS011;29836;52.286;9.576;2023-06-14T06:04:23;5.00;;;2.13;;
44169;SDS011;29836;52.286;9.576;2023-06-14T06:06:48;4.05;;;2.00;;
44169;SDS011;29836;52.286;9.576;2023-06-14T06:09:14;4.60;;;1.88;;
44169;SDS011;29836;52.286;9.576;2023-06-14T06:11:40;3.20;;;1.90;;
44169;SDS011;29836;52.286;9.576;2023-06-14T06:14:05;3.35;;;2.00;;
44169;SDS011;29836;52.286;9.576;2023-06-14T06:16:31;3.80;;;2.00;;
44169;SDS011;29836;52.286;9.576;2023-06-14T06:18:57;3.15;;;2.00;;
44169;SDS011;29836;52.286;9.576;2023-06-14T06:21:23;5.05;;;2.30;;
44169;SDS011;29836;52.286;9.576;2023-06-14T06:23:48;3.15;;;1.88;;
44169;SDS011;29836;52.286;9.576;2023-06-14T06:26:14;3.30;;;1.90;;
44169;SDS011;29836;52.286;9.576;2023-06-14T06:28:40;3.60;;;2.05;;
44169;SDS011;29836;52.286;9.576;2023-06-14T06:31:05;3.90;;;2.00;;
44169;SDS011;29836;52.286;9.576;2023-06-14T06:33:31;3.42;;;1.92;;
44169;SDS011;29836;52.286;9.576;2023-06-14T06:35:57;4.55;;;2.00;;
44169;SDS011;29836;52.286;9.576;2023-06-14T06:38:22;5.55;;;1.80;;
44169;SDS011;29836;52.286;9.576;2023-06-14T06:40:48;3.60;;;2.00;;
44169;SDS011;29836;52.286;9.576;2023-06-14T06:43:13;3.20;;;1.90;;
44169;SDS011;29836;52.286;9.576;2023-06-14T06:45:39;4.60;;;2.03;;
44169;SDS011;29836;52.286;9.576;2023-06-14T06:48:05;4.47;;;1.95;;
44169;SDS011;29836;52.286;9.576;2023-06-14T06:50:31;4.28;;;1.90;;
44169;SDS011;29836;52.286;9.576;2023-06-14T06:52:57;4.15;;;2.08;;
44169;SDS011;29836;52.286;9.576;2023-06-14T06:55:23;3.80;;;1.90;;
44169;SDS011;29836;52.286;9.576;2023-06-14T06:57:48;2.90;;;2.03;;
44169;SDS011;29836;52.286;9.576;2023-06-14T07:00:15;4.90;;;1.83;;
44169;SDS011;29836;52.286;9.576;2023-06-14T07:02:41;4.38;;;1.80;;
44169;SDS011;29836;52.286;9.576;2023-06-14T07:05:07;3.65;;;1.83;;
44169;SDS011;29836;52.286;9.576;2023-06-14T07:07:33;3.10;;;1.88;;
44169;SDS011;29836;52.286;9.576;2023-06-14T07:09:59;4.22;;;1.83;;
44169;SDS011;29836;52.286;9.576;2023-06-14T07:12:25;3.15;;;2.10;;
44169;SDS011;29836;52.286;9.576;2023-06-14T07:14:50;2.85;;;1.80;;
44169;SDS011;29836;52.286;9.576;2023-06-14T07:17:16;3.97;;;1.95;;
44169;SDS011;29836;52.286;9.576;2023-06-14T07:19:41;3.40;;;1.83;;
44169;SDS011;29836;52.286;9.576;2023-06-14T07:22:07;3.35;;;1.70;;
44169;SDS011;29836;52.286;9.576;2023-06-14T07:24:32;5.38;;;2.00;;
44169;SDS011;29836;52.286;9.576;2023-06-14T07:26:59;4.20;;;2.10;;
44169;SDS011;29836;52.286;9.576;2023-06-14T07:29:25;6.40;;;2.08;;
44169;SDS011;29836;52.286;9.576;2023-06-14T07:31:52;2.63;;;1.90;;
44169;SDS011;29836;52.286;9.576;2023-06-14T07:34:17;4.15;;;2.03;;
44169;SDS011;29836;52.286;9.576;2023-06-14T07:36:43;3.88;;;1.90;;
44169;SDS011;29836;52.286;9.576;2023-06-14T07:39:10;2.53;;;1.60;;
44169;SDS011;29836;52.286;9.576;2023-06-14T07:41:35;3.58;;;1.92;;
44169;SDS011;29836;52.286;9.576;2023-06-14T07:44:01;3.08;;;1.80;;
44169;SDS011;29836;52.286;9.576;2023-06-14T07:46:26;3.80;;;1.92;;
44169;SDS011;29836;52.286;9.576;2023-06-14T07:48:52;5.30;;;1.98;;
44169;SDS011;29836;52.286;9.576;2023-06-14T07:51:17;3.08;;;1.90;;
44169;SDS011;29836;52.286;9.576;2023-06-14T07:53:43;5.22;;;1.88;;
44169;SDS011;29836;52.286;9.576;2023-06-14T07:56:08;3.03;;;1.77;;
44169;SDS011;29836;52.286;9.576;2023-06-14T07:58:34;2.00;;;1.58;;
44169;SDS011;29836;52.286;9.576;2023-06-14T08:01:00;2.65;;;1.80;;
44169;SDS011;29836;52.286;9.576;2023-06-14T08:03:28;5.10;;;1.90;;
44169;SDS011;29836;52.286;9.576;2023-06-14T08:05:54;3.20;;;1.85;;
44169;SDS011;29836;52.286;9.576;2023-06-14T08:08:20;4.75;;;1.90;;
44169;SDS011;29836;52.286;9.576;2023-06-14T08:10:46;3.47;;;1.83;;
44169;SDS011;29836;52.286;9.576;2023-06-14T08:13:11;4.18;;;2.00;;
44169;SDS011;29836;52.286;9.576;2023-06-14T08:15:37;3.63;;;1.95;;
44169;SDS011;29836;52.286;9.576;2023-06-14T08:18:02;3.25;;;2.00;;
44169;SDS011;29836;52.286;9.576;2023-06-14T08:20:28;4.75;;;2.10;;
44169;SDS011;29836;52.286;9.576;2023-06-14T08:22:55;3.90;;;1.88;;
44169;SDS011;29836;52.286;9.576;2023-06-14T08:25:22;4.28;;;1.70;;
44169;SDS011;29836;52.286;9.576;2023-06-14T08:27:47;3.85;;;1.65;;
44169;SDS011;29836;52.286;9.576;2023-06-14T08:30:13;3.33;;;1.75;;
44169;SDS011;29836;52.286;9.576;2023-06-14T08:32:39;2.63;;;1.75;;
44169;SDS011;29836;52.286;9.576;2023-06-14T08:35:04;1.95;;;1.55;;
44169;SDS011;29836;52.286;9.576;2023-06-14T08:37:32;4.28;;;1.70;;
44169;SDS011;29836;52.286;9.576;2023-06-14T08:40:00;2.30;;;1.60;;
44169;SDS011;29836;52.286;9.576;2023-06-14T08:42:29;3.10;;;1.80;;
44169;SDS011;29836;52.286;9.576;2023-06-14T08:44:56;2.80;;;1.60;;
44169;SDS011;29836;52.286;9.576;2023-06-14T08:47:22;3.88;;;1.90;;
44169;SDS011;29836;52.286;9.576;2023-06-14T08:49:51;2.25;;;1.55;;
44169;SDS011;29836;52.286;9.576;2023-06-14T08:52:18;3.47;;;1.75;;
44169;SDS011;29836;52.286;9.576;2023-06-14T08:54:45;2.72;;;1.58;;
44169;SDS011;29836;52.286;9.576;2023-06-14T08:57:13;2.92;;;1.50;;
44169;SDS011;29836;52.286;9.576;2023-06-14T08:59:40;2.33;;;1.65;;
44169;SDS011;29836;52.286;9.576;2023-06-14T09:02:17;3.22;;;1.40;;
44169;SDS011;29836;52.286;9.576;2023-06-14T09:04:44;3.28;;;1.55;;
44169;SDS011;29836;52.286;9.576;2023-06-14T09:07:10;2.70;;;1.70;;
44169;SDS011;29836;52.286;9.576;2023-06-14T09:09:41;2.78;;;1.67;;
44169;SDS011;29836;52.286;9.576;2023-06-14T09:12:07;2.47;;;1.67;;
44169;SDS011;29836;52.286;9.576;2023-06-14T09:14:36;2.28;;;1.65;;
44169;SDS011;29836;52.286;9.576;2023-06-14T09:17:04;2.85;;;1.80;;
44169;SDS011;29836;52.286;9.576;2023-06-14T09:19:30;3.08;;;1.80;;
44169;SDS011;29836;52.286;9.576;2023-06-14T09:21:55;2.45;;;1.60;;
44169;SDS011;29836;52.286;9.576;2023-06-14T09:24:21;2.88;;;1.77;;
44169;SDS011;29836;52.286;9.576;2023-06-14T09:26:53;4.63;;;1.80;;
44169;SDS011;29836;52.286;9.576;2023-06-14T09:29:18;2.75;;;1.80;;
44169;SDS011;29836;52.286;9.576;2023-06-14T09:31:47;2.38;;;1.50;;
44169;SDS011;29836;52.286;9.576;2023-06-14T09:34:12;2.75;;;1.70;;
44169;SDS011;29836;52.286;9.576;2023-06-14T09:36:39;3.80;;;1.58;;
44169;SDS011;29836;52.286;9.576;2023-06-14T09:39:05;4.38;;;1.80;;
44169;SDS011;29836;52.286;9.576;2023-06-14T09:41:31;4.88;;;1.80;;
44169;SDS011;29836;52.286;9.576;2023-06-14T09:44:06;2.33;;;1.60;;
44169;SDS011;29836;52.286;9.576;2023-06-14T09:46:32;2.35;;;1.50;;
44169;SDS011;29836;52.286;9.576;2023-06-14T09:48:59;2.55;;;1.70;;
44169;SDS011;29836;52.286;9.576;2023-06-14T09:51:25;2.00;;;1.42;;
44169;SDS011;29836;52.286;9.576;2023-06-14T09:53:52;2.80;;;1.45;;
44169;SDS011;29836;52.286;9.576;2023-06-14T09:56:27;2.53;;;1.80;;
44169;SDS011;29836;52.286;9.576;2023-06-14T09:58:58;2.90;;;1.45;;
44169;SDS011;29836;52.286;9.576;2023-06-14T10:01:25;3.58;;;1.70;;
44169;SDS011;29836;52.286;9.576;2023-06-14T10:03:55;2.05;;;1.40;;
44169;SDS011;29836;52.286;9.576;2023-06-14T10:06:26;2.13;;;1.40;;
44169;SDS011;29836;52.286;9.576;2023-06-14T10:08:54;2.42;;;1.50;;
44169;SDS011;29836;52.286;9.576;2023-06-14T10:11:22;3.00;;;1.70;;
44169;SDS011;29836;52.286;9.576;2023-06-14T10:13:50;3.67;;;1.65;;
44169;SDS011;29836;52.286;9.576;2023-06-14T10:24:15;3.30;;;1.60;;
44169;SDS011;29836;52.286;9.576;2023-06-14T10:26:49;3.20;;;1.65;;
44169;SDS011;29836;52.286;9.576;2023-06-14T10:29:17;2.35;;;1.33;;
44169;SDS011;29836;52.286;9.576;2023-06-14T10:34:09;2.53;;;1.58;;
44169;SDS011;29836;52.286;9.576;2023-06-14T10:36:35;1.90;;;1.40;;
44169;SDS011;29836;52.286;9.576;2023-06-14T10:39:04;1.90;;;1.60;;
44169;SDS011;29836;52.286;9.576;2023-06-14T10:41:31;2.72;;;1.48;;
44169;SDS011;29836;52.286;9.576;2023-06-14T10:46:37;2.20;;;1.65;;
44169;SDS011;29836;52.286;9.576;2023-06-14T10:49:05;4.60;;;1.60;;
44169;SDS011;29836;52.286;9.576;2023-06-14T10:51:38;2.92;;;1.70;;
44169;SDS011;29836;52.286;9.576;2023-06-14T10:54:11;2.90;;;1.50;;
44169;SDS011;29836;52.286;9.576;2023-06-14T10:56:38;2.65;;;1.80;;
44169;SDS011;29836;52.286;9.576;2023-06-14T10:59:15;2.20;;;1.63;;
44169;SDS011;29836;52.286;9.576;2023-06-14T11:04:17;2.53;;;1.60;;
44169;SDS011;29836;52.286;9.576;2023-06-14T11:06:46;2.72;;;1.70;;
44169;SDS011;29836;52.286;9.576;2023-06-14T11:09:20;2.40;;;1.60;;
44169;SDS011;29836;52.286;9.576;2023-06-14T11:11:53;4.50;;;1.70;;
44169;SDS011;29836;52.286;9.576;2023-06-14T11:14:21;2.83;;;1.70;;
44169;SDS011;29836;52.286;9.576;2023-06-14T11:16:50;3.30;;;1.92;;
44169;SDS011;29836;52.286;9.576;2023-06-14T11:19:15;3.60;;;2.00;;
44169;SDS011;29836;52.286;9.576;2023-06-14T11:21:42;3.03;;;1.70;;
44169;SDS011;29836;52.286;9.576;2023-06-14T11:24:11;2.97;;;1.90;;
44169;SDS011;29836;52.286;9.576;2023-06-14T11:26:37;2.85;;;1.90;;
44169;SDS011;29836;52.286;9.576;2023-06-14T11:29:03;2.90;;;1.80;;
44169;SDS011;29836;52.286;9.576;2023-06-14T11:31:29;7.53;;;2.10;;
44169;SDS011;29836;52.286;9.576;2023-06-14T11:33:55;3.20;;;1.83;;
44169;SDS011;29836;52.286;9.576;2023-06-14T11:36:22;3.75;;;2.17;;
44169;SDS011;29836;52.286;9.576;2023-06-14T11:38:48;4.65;;;2.03;;
44169;SDS011;29836;52.286;9.576;2023-06-14T11:41:13;4.10;;;2.30;;
44169;SDS011;29836;52.286;9.576;2023-06-14T11:43:39;3.30;;;2.10;;
44169;SDS011;29836;52.286;9.576;2023-06-14T11:46:11;2.58;;;1.90;;
44169;SDS011;29836;52.286;9.576;2023-06-14T11:48:40;3.35;;;2.13;;
44169;SDS011;29836;52.286;9.576;2023-06-14T11:51:06;4.32;;;2.38;;
44169;SDS011;29836;52.286;9.576;2023-06-14T11:53:32;4.07;;;1.98;;
44169;SDS011;29836;52.286;9.576;2023-06-14T11:55:58;3.65;;;2.28;;
44169;SDS011;29836;52.286;9.576;2023-06-14T11:58:25;5.03;;;1.98;;
44169;SDS011;29836;52.286;9.576;2023-06-14T12:00:52;2.78;;;1.98;;
44169;SDS011;29836;52.286;9.576;2023-06-14T12:03:22;5.35;;;2.05;;
44169;SDS011;29836;52.286;9.576;2023-06-14T12:05:48;2.67;;;1.88;;
44169;SDS011;29836;52.286;9.576;2023-06-14T12:08:14;3.88;;;2.10;;
44169;SDS011;29836;52.286;9.576;2023-06-14T12:10:42;6.82;;;2.30;;
44169;SDS011;29836;52.286;9.576;2023-06-14T12:13:08;3.63;;;2.03;;
44169;SDS011;29836;52.286;9.576;2023-06-14T12:15:34;2.70;;;1.90;;
44169;SDS011;29836;52.286;9.576;2023-06-14T12:18:00;3.58;;;1.92;;
44169;SDS011;29836;52.286;9.576;2023-06-14T12:20:29;3.70;;;2.10;;
44169;SDS011;29836;52.286;9.576;2023-06-14T12:22:56;4.18;;;2.10;;
44169;SDS011;29836;52.286;9.576;2023-06-14T12:25:28;3.80;;;2.10;;
44169;SDS011;29836;52.286;9.576;2023-06-14T12:27:59;3.35;;;2.17;;
44169;SDS011;29836;52.286;9.576;2023-06-14T12:30:29;2.67;;;2.05;;
44169;SDS011;29836;52.286;9.576;2023-06-14T12:32:54;3.67;;;2.00;;
44169;SDS011;29836;52.286;9.576;2023-06-14T12:35:20;3.45;;;2.20;;
44169;SDS011;29836;52.286;9.576;2023-06-14T12:37:46;3.50;;;2.20;;
44169;SDS011;29836;52.286;9.576;2023-06-14T12:40:12;2.85;;;2.03;;
44169;SDS011;29836;52.286;9.576;2023-06-14T12:42:38;3.45;;;2.10;;
44169;SDS011;29836;52.286;9.576;2023-06-14T12:45:03;2.70;;;1.98;;
44169;SDS011;29836;52.286;9.576;2023-06-14T12:47:29;3.47;;;2.30;;
44169;SDS011;29836;52.286;9.576;2023-06-14T12:49:55;4.55;;;2.30;;
44169;SDS011;29836;52.286;9.576;2023-06-14T12:52:21;5.70;;;1.98;;
44169;SDS011;29836;52.286;9.576;2023-06-14T12:54:46;3.70;;;1.90;;
44169;SDS011;29836;52.286;9.576;2023-06-14T12:57:12;3.70;;;2.42;;
44169;SDS011;29836;52.286;9.576;2023-06-14T12:59:37;3.28;;;2.17;;
44169;SDS011;29836;52.286;9.576;2023-06-14T13:04:41;3.42;;;2.00;;
44169;SDS011;29836;52.286;9.576;2023-06-14T13:07:08;6.18;;;2.30;;
44169;SDS011;29836;52.286;9.576;2023-06-14T13:09:35;4.45;;;2.17;;
44169;SDS011;29836;52.286;9.576;2023-06-14T13:12:01;3.88;;;2.50;;
44169;SDS011;29836;52.286;9.576;2023-06-14T13:14:26;4.30;;;2.47;;
44169;SDS011;29836;52.286;9.576;2023-06-14T13:16:52;4.13;;;2.35;;
44169;SDS011;29836;52.286;9.576;2023-06-14T13:19:18;3.92;;;2.35;;
44169;SDS011;29836;52.286;9.576;2023-06-14T13:21:43;3.97;;;2.50;;
44169;SDS011;29836;52.286;9.576;2023-06-14T13:24:09;3.60;;;2.40;;
44169;SDS011;29836;52.286;9.576;2023-06-14T13:26:34;3.20;;;2.53;;
44169;SDS011;29836;52.286;9.576;2023-06-14T13:29:00;4.05;;;2.67;;
44169;SDS011;29836;52.286;9.576;2023-06-14T13:31:25;4.85;;;2.60;;
44169;SDS011;29836;52.286;9.576;2023-06-14T13:33:51;5.10;;;2.63;;
44169;SDS011;29836;52.286;9.576;2023-06-14T13:36:17;4.15;;;2.47;;
44169;SDS011;29836;52.286;9.576;2023-06-14T13:38:42;3.83;;;2.15;;
44169;SDS011;29836;52.286;9.576;2023-06-14T13:41:08;4.45;;;2.33;;
44169;SDS011;29836;52.286;9.576;2023-06-14T13:43:33;3.85;;;2.58;;
44169;SDS011;29836;52.286;9.576;2023-06-14T13:45:59;5.63;;;2.70;;
44169;SDS011;29836;52.286;9.576;2023-06-14T13:48:24;4.22;;;2.55;;
44169;SDS011;29836;52.286;9.576;2023-06-14T13:50:50;6.00;;;2.85;;
44169;SDS011;29836;52.286;9.576;2023-06-14T13:53:15;3.58;;;2.42;;
44169;SDS011;29836;52.286;9.576;2023-06-14T13:55:41;4.65;;;2.63;;
44169;SDS011;29836;52.286;9.576;2023-06-14T13:58:06;7.90;;;2.50;;
44169;SDS011;29836;52.286;9.576;2023-06-14T14:00:32;4.85;;;2.53;;
44169;SDS011;29836;52.286;9.576;2023-06-14T14:02:57;5.00;;;2.70;;
44169;SDS011;29836;52.286;9.576;2023-06-14T14:05:24;4.78;;;2.30;;
44169;SDS011;29836;52.286;9.576;2023-06-14T14:07:54;8.38;;;2.65;;
44169;SDS011;29836;52.286;9.576;2023-06-14T14:10:20;4.93;;;2.50;;
44169;SDS011;29836;52.286;9.576;2023-06-14T14:12:45;3.92;;;2.35;;
44169;SDS011;29836;52.286;9.576;2023-06-14T14:15:11;6.25;;;2.13;;
44169;SDS011;29836;52.286;9.576;2023-06-14T14:17:39;4.80;;;2.40;;
44169;SDS011;29836;52.286;9.576;2023-06-14T14:20:05;4.28;;;2.53;;
44169;SDS011;29836;52.286;9.576;2023-06-14T14:22:32;4.15;;;2.30;;
44169;SDS011;29836;52.286;9.576;2023-06-14T14:24:57;3.33;;;2.50;;
44169;SDS011;29836;52.286;9.576;2023-06-14T14:27:23;6.78;;;2.55;;
44169;SDS011;29836;52.286;9.576;2023-06-14T14:29:48;5.00;;;2.65;;
44169;SDS011;29836;52.286;9.576;2023-06-14T14:32:14;6.28;;;2.80;;
44169;SDS011;29836;52.286;9.576;2023-06-14T14:34:40;4.95;;;3.10;;
44169;SDS011;29836;52.286;9.576;2023-06-14T14:37:06;5.90;;;2.65;;
44169;SDS011;29836;52.286;9.576;2023-06-14T14:39:31;4.72;;;2.53;;
44169;SDS011;29836;52.286;9.576;2023-06-14T14:41:57;3.92;;;2.72;;
44169;SDS011;29836;52.286;9.576;2023-06-14T14:44:23;4.75;;;2.65;;
44169;SDS011;29836;52.286;9.576;2023-06-14T14:46:48;4.40;;;2.80;;
44169;SDS011;29836;52.286;9.576;2023-06-14T14:49:14;5.95;;;2.42;;
44169;SDS011;29836;52.286;9.576;2023-06-14T14:51:39;5.07;;;2.83;;
44169;SDS011;29836;52.286;9.576;2023-06-14T14:54:05;4.90;;;2.75;;
44169;SDS011;29836;52.286;9.576;2023-06-14T14:56:31;3.47;;;2.65;;
44169;SDS011;29836;52.286;9.576;2023-06-14T14:58:57;3.60;;;2.35;;
44169;SDS011;29836;52.286;9.576;2023-06-14T15:01:23;5.30;;;2.70;;
44169;SDS011;29836;52.286;9.576;2023-06-14T15:03:48;5.25;;;2.58;;
44169;SDS011;29836;52.286;9.576;2023-06-14T15:06:14;3.20;;;2.40;;
44169;SDS011;29836;52.286;9.576;2023-06-14T15:08:39;3.65;;;2.50;;